createdAt,value
2017-10-21T00:02:11.047Z,11.90
2017-10-21T00:04:37.224Z,11.90
2017-10-21T00:07:03.399Z,11.90
2017-10-21T00:09:30.323Z,12.10
2017-10-21T00:11:56.512Z,12.10
2017-10-21T00:14:22.694Z,12.30
2017-10-21T00:16:48.852Z,12.30
2017-10-21T00:19:15.028Z,12.30
2017-10-21T00:21:41.928Z,12.10
2017-10-21T00:24:08.097Z,12.10
2017-10-21T00:26:34.276Z,12.10
2017-10-21T00:29:01.193Z,12.20
2017-10-21T00:31:28.128Z,12.00
2017-10-21T00:33:54.311Z,12.00
2017-10-21T00:36:20.477Z,12.10
2017-10-21T00:38:47.407Z,11.90
2017-10-21T00:41:13.569Z,11.80
2017-10-21T00:43:40.535Z,11.70
2017-10-21T00:46:07.449Z,11.80
2017-10-21T00:48:33.660Z,11.80
2017-10-21T00:50:59.838Z,11.80
2017-10-21T00:53:26.048Z,11.80
2017-10-21T00:55:52.224Z,11.70
2017-10-21T00:58:18.430Z,11.60
2017-10-21T01:00:44.604Z,11.60
2017-10-21T01:03:10.815Z,11.60
2017-10-21T01:05:36.988Z,11.50
2017-10-21T01:08:03.189Z,11.40
2017-10-21T01:10:29.356Z,11.50
2017-10-21T01:12:55.540Z,11.50
2017-10-21T01:15:22.491Z,11.60
2017-10-21T01:17:48.655Z,11.60
2017-10-21T01:20:14.860Z,11.60
2017-10-21T01:22:41.041Z,11.60
2017-10-21T01:25:07.236Z,11.60
2017-10-21T01:27:34.152Z,11.60
2017-10-21T01:30:00.336Z,11.60
2017-10-21T01:32:26.540Z,11.60
2017-10-21T01:34:52.772Z,11.60
2017-10-21T01:37:18.948Z,11.70
2017-10-21T01:39:45.161Z,11.60
2017-10-21T01:42:11.331Z,11.60
2017-10-21T01:44:37.536Z,11.60
2017-10-21T01:47:03.708Z,11.70
2017-10-21T01:49:30.645Z,11.70
2017-10-21T01:51:56.828Z,11.70
2017-10-21T01:54:23.029Z,11.70
2017-10-21T01:56:49.203Z,11.70
2017-10-21T01:59:15.395Z,11.70
2017-10-21T02:01:41.579Z,11.80
2017-10-21T02:04:07.768Z,11.80
2017-10-21T02:06:34.689Z,11.90
2017-10-21T02:09:00.884Z,11.80
2017-10-21T02:11:27.062Z,11.90
2017-10-21T02:13:53.264Z,12.00
2017-10-21T02:16:19.456Z,12.00
2017-10-21T02:18:45.635Z,12.00
2017-10-21T02:21:12.570Z,12.10
2017-10-21T02:23:38.739Z,12.10
2017-10-21T02:26:05.684Z,12.10
2017-10-21T02:28:32.594Z,12.10
2017-10-21T02:30:58.776Z,12.10
2017-10-21T02:33:24.980Z,12.10
2017-10-21T02:35:51.203Z,12.00
2017-10-21T02:38:17.376Z,12.00
2017-10-21T02:40:43.586Z,12.00
2017-10-21T02:43:09.748Z,12.00
2017-10-21T02:45:35.939Z,12.00
2017-10-21T02:48:02.845Z,12.00
2017-10-21T02:50:29.085Z,11.90
2017-10-21T02:52:55.272Z,12.00
2017-10-21T02:55:22.223Z,11.90
2017-10-21T02:57:48.389Z,11.90
2017-10-21T03:00:15.712Z,12.00
2017-10-21T03:02:42.192Z,12.00
2017-10-21T03:05:09.153Z,11.90
2017-10-21T03:07:36.144Z,11.90
2017-10-21T03:10:02.322Z,11.90
2017-10-21T03:12:28.508Z,11.90
2017-10-21T03:14:55.416Z,11.80
2017-10-21T03:17:21.608Z,11.80
2017-10-21T03:19:48.516Z,11.80
2017-10-21T03:22:15.454Z,11.80
2017-10-21T03:24:41.636Z,11.80
2017-10-21T03:27:07.852Z,11.80
2017-10-21T03:29:34.019Z,11.80
2017-10-21T03:32:00.237Z,11.90
2017-10-21T03:34:26.424Z,11.90
2017-10-21T03:36:53.380Z,11.90
2017-10-21T03:39:20.304Z,11.90
2017-10-21T03:41:46.482Z,11.80
2017-10-21T03:44:13.408Z,11.80
2017-10-21T03:46:39.604Z,11.80
2017-10-21T03:49:05.756Z,11.90
2017-10-21T03:51:31.940Z,11.80
2017-10-21T03:53:58.099Z,11.90
2017-10-21T03:56:25.012Z,11.90
2017-10-21T03:58:51.177Z,11.90
2017-10-21T04:01:17.368Z,11.90
2017-10-21T04:03:43.516Z,11.90
2017-10-21T04:06:09.700Z,12.00
2017-10-21T04:08:35.878Z,11.90
2017-10-21T04:11:02.823Z,11.90
2017-10-21T04:13:29.036Z,11.80
2017-10-21T04:15:55.203Z,11.80
2017-10-21T04:18:22.165Z,11.70
2017-10-21T04:20:49.112Z,11.70
2017-10-21T04:23:15.299Z,11.70
2017-10-21T04:25:41.487Z,11.80
2017-10-21T04:28:07.689Z,11.80
2017-10-21T04:30:33.888Z,11.70
2017-10-21T04:33:00.827Z,11.70
2017-10-21T04:35:26.984Z,11.60
2017-10-21T04:37:53.178Z,11.60
2017-10-21T04:40:19.329Z,11.50
2017-10-21T04:42:45.485Z,11.40
2017-10-21T04:45:11.673Z,11.40
2017-10-21T04:47:37.829Z,11.30
2017-10-21T04:50:04.034Z,11.30
2017-10-21T04:52:30.949Z,11.20
2017-10-21T04:54:57.161Z,11.20
2017-10-21T04:57:23.336Z,11.20
2017-10-21T04:59:50.271Z,11.10
2017-10-21T05:02:16.441Z,11.10
2017-10-21T05:04:42.623Z,11.00
2017-10-21T05:07:09.531Z,11.00
2017-10-21T05:09:35.721Z,11.00
2017-10-21T05:12:02.639Z,10.90
2017-10-21T05:14:28.854Z,10.90
2017-10-21T05:16:55.039Z,10.90
2017-10-21T05:19:21.261Z,10.90
2017-10-21T05:21:47.424Z,10.90
2017-10-21T05:24:13.631Z,10.90
2017-10-21T05:26:39.801Z,11.00
2017-10-21T05:29:05.988Z,11.00
2017-10-21T05:31:32.159Z,10.90
2017-10-21T05:33:58.368Z,11.00
2017-10-21T05:36:24.520Z,11.00
2017-10-21T05:38:50.700Z,11.00
2017-10-21T05:41:16.868Z,10.90
2017-10-21T05:43:43.787Z,11.00
2017-10-21T05:46:09.956Z,11.00
2017-10-21T05:48:36.165Z,11.10
2017-10-21T05:51:02.329Z,11.00
2017-10-21T05:53:28.516Z,11.00
2017-10-21T05:55:54.720Z,11.00
2017-10-21T05:58:21.037Z,11.00
2017-10-21T06:00:47.239Z,11.00
2017-10-21T06:03:13.426Z,11.00
2017-10-21T06:05:39.617Z,11.00
2017-10-21T06:08:06.539Z,11.00
2017-10-21T06:10:32.709Z,11.00
2017-10-21T06:12:59.676Z,10.90
2017-10-21T06:15:26.603Z,10.90
2017-10-21T06:17:52.887Z,10.90
2017-10-21T06:20:19.079Z,11.00
2017-10-21T06:22:45.282Z,11.00
2017-10-21T06:25:11.475Z,11.10
2017-10-21T06:27:37.689Z,11.00
2017-10-21T06:30:03.904Z,11.00
2017-10-21T06:32:30.112Z,10.90
2017-10-21T06:34:56.345Z,11.00
2017-10-21T06:37:22.549Z,11.00
2017-10-21T06:39:48.752Z,10.90
2017-10-21T06:42:15.680Z,10.90
2017-10-21T06:44:42.013Z,10.90
2017-10-21T06:47:08.174Z,11.00
2017-10-21T06:49:34.336Z,11.00
2017-10-21T06:52:01.248Z,11.10
2017-10-21T06:54:27.415Z,11.10
2017-10-21T06:56:53.628Z,11.20
2017-10-21T06:59:19.803Z,11.20
2017-10-21T07:01:45.986Z,11.30
2017-10-21T07:04:12.320Z,11.30
2017-10-21T07:06:38.492Z,11.40
2017-10-21T07:09:04.668Z,11.40
2017-10-21T07:11:30.876Z,11.40
2017-10-21T07:13:57.040Z,11.50
2017-10-21T07:16:24.284Z,11.50
2017-10-21T07:18:50.441Z,11.40
2017-10-21T07:21:17.350Z,11.50
2017-10-21T07:23:43.557Z,11.50
2017-10-21T07:26:09.787Z,11.50
2017-10-21T07:28:36.164Z,11.40
2017-10-21T07:31:03.139Z,11.40
2017-10-21T07:33:29.328Z,11.40
2017-10-21T07:35:55.524Z,11.40
2017-10-21T07:38:21.688Z,11.50
2017-10-21T07:40:47.876Z,11.60
2017-10-21T07:43:14.034Z,11.60
2017-10-21T07:45:40.958Z,11.70
2017-10-21T07:48:07.125Z,11.70
2017-10-21T07:50:34.035Z,11.70
2017-10-21T07:53:00.231Z,11.70
2017-10-21T07:55:27.121Z,11.80
2017-10-21T07:57:53.360Z,11.80
2017-10-21T08:00:19.525Z,11.80
2017-10-21T08:02:45.721Z,11.80
2017-10-21T08:05:12.624Z,11.80
2017-10-21T08:07:38.815Z,11.70
2017-10-21T08:10:05.771Z,11.90
2017-10-21T08:12:32.719Z,11.80
2017-10-21T08:14:58.883Z,11.80
2017-10-21T08:17:25.784Z,11.90
2017-10-21T08:19:51.968Z,11.90
2017-10-21T08:22:18.881Z,12.00
2017-10-21T08:24:45.064Z,12.00
2017-10-21T08:27:12.108Z,12.10
2017-10-21T08:29:38.308Z,12.10
2017-10-21T08:32:04.618Z,12.20
2017-10-21T08:34:31.547Z,12.40
2017-10-21T08:36:57.708Z,12.30
2017-10-21T08:39:23.906Z,12.50
2017-10-21T08:41:50.092Z,12.50
2017-10-21T08:44:16.283Z,12.50
2017-10-21T08:46:42.471Z,12.60
2017-10-21T08:49:08.639Z,12.60
2017-10-21T08:51:35.576Z,12.80
2017-10-21T08:54:02.505Z,12.80
2017-10-21T08:56:28.660Z,12.70
2017-10-21T08:58:54.855Z,12.80
2017-10-21T09:01:21.045Z,12.80
2017-10-21T09:03:47.200Z,12.80
2017-10-21T09:06:13.372Z,12.90
2017-10-21T09:08:39.527Z,13.00
2017-10-21T09:11:05.730Z,12.90
2017-10-21T09:13:32.637Z,13.10
2017-10-21T09:15:58.852Z,13.00
2017-10-21T09:18:25.007Z,13.20
2017-10-21T09:20:51.190Z,13.30
2017-10-21T09:23:17.365Z,13.30
2017-10-21T09:25:43.557Z,13.40
2017-10-21T09:28:09.720Z,13.40
2017-10-21T09:30:35.902Z,13.50
2017-10-21T09:33:02.091Z,13.50
2017-10-21T09:35:28.388Z,13.50
2017-10-21T09:37:54.548Z,13.70
2017-10-21T09:40:20.713Z,13.80
2017-10-21T09:42:46.883Z,13.90
2017-10-21T09:45:13.784Z,14.20
2017-10-21T09:47:39.982Z,14.20
2017-10-21T09:50:06.894Z,14.50
2017-10-21T09:52:33.099Z,14.50
2017-10-21T09:55:00.000Z,14.50
2017-10-21T09:57:26.188Z,14.50
2017-10-21T09:59:53.091Z,14.60
2017-10-21T10:02:19.267Z,14.60
2017-10-21T10:04:45.427Z,14.50
2017-10-21T10:07:11.844Z,14.50
2017-10-21T10:09:38.011Z,14.50
2017-10-21T10:12:04.929Z,14.90
2017-10-21T10:14:31.116Z,14.80
2017-10-21T10:16:58.067Z,14.90
2017-10-21T10:19:24.965Z,14.90
2017-10-21T10:21:51.125Z,14.90
2017-10-21T10:24:17.344Z,15.00
2017-10-21T10:26:43.539Z,15.10
2017-10-21T10:29:09.764Z,15.30
2017-10-21T10:31:35.921Z,15.30
2017-10-21T10:34:02.123Z,15.30
2017-10-21T10:36:28.288Z,15.50
2017-10-21T10:38:54.473Z,15.60
2017-10-21T10:41:21.372Z,15.70
2017-10-21T10:43:47.546Z,15.70
2017-10-21T10:46:13.691Z,15.60
2017-10-21T10:48:39.868Z,15.60
2017-10-21T10:51:06.088Z,15.50
2017-10-21T10:53:33.091Z,15.60
2017-10-21T10:55:59.295Z,15.60
2017-10-21T10:58:26.193Z,15.50
2017-10-21T11:00:52.412Z,15.50
2017-10-21T11:03:18.589Z,15.40
2017-10-21T11:05:44.772Z,15.50
2017-10-21T11:08:11.683Z,15.30
2017-10-21T11:10:37.860Z,15.30
2017-10-21T11:13:04.067Z,15.20
2017-10-21T11:15:30.245Z,15.30
2017-10-21T11:17:56.416Z,15.20
2017-10-21T11:20:22.673Z,15.00
2017-10-21T11:22:48.832Z,15.20
2017-10-21T11:25:15.051Z,15.10
2017-10-21T11:27:41.248Z,14.80
2017-10-21T11:30:07.460Z,14.70
2017-10-21T11:32:33.752Z,14.80
2017-10-21T11:35:00.673Z,14.60
2017-10-21T11:37:26.856Z,14.60
2017-10-21T11:39:53.795Z,14.40
2017-10-21T11:42:19.984Z,14.40
2017-10-21T11:44:46.173Z,14.30
2017-10-21T11:47:12.388Z,14.40
2017-10-21T11:49:39.311Z,14.30
2017-10-21T11:52:05.524Z,14.30
2017-10-21T11:54:31.692Z,14.40
2017-10-21T11:56:57.889Z,14.50
2017-10-21T11:59:24.051Z,14.50
2017-10-21T12:01:50.981Z,14.60
2017-10-21T12:04:17.139Z,14.60
2017-10-21T12:06:43.341Z,14.60
2017-10-21T12:09:09.510Z,14.20
2017-10-21T12:11:35.711Z,14.20
2017-10-21T12:14:01.892Z,14.30
2017-10-21T12:16:28.049Z,14.20
2017-10-21T12:18:54.271Z,14.10
2017-10-21T12:21:20.452Z,14.10
2017-10-21T12:23:47.431Z,13.90
2017-10-21T12:26:13.623Z,13.90
2017-10-21T12:28:40.245Z,13.80
2017-10-21T12:31:06.396Z,13.70
2017-10-21T12:33:32.958Z,13.50
2017-10-21T12:35:59.136Z,13.60
2017-10-21T12:38:26.076Z,13.60
2017-10-21T12:40:52.512Z,13.60
2017-10-21T12:43:18.896Z,13.60
2017-10-21T12:45:45.944Z,13.60
2017-10-21T12:48:13.102Z,13.60
2017-10-21T12:50:39.359Z,13.60
2017-10-21T12:53:06.417Z,13.60
2017-10-21T12:55:33.321Z,13.70
2017-10-21T12:57:59.563Z,13.70
2017-10-21T13:00:25.744Z,13.70
2017-10-21T13:02:51.964Z,13.60
2017-10-21T13:05:18.130Z,13.60
2017-10-21T13:07:44.283Z,13.70
2017-10-21T13:10:11.285Z,13.70
2017-10-21T13:12:37.508Z,13.70
2017-10-21T13:15:03.875Z,13.60
2017-10-21T13:17:30.177Z,13.60
2017-10-21T13:19:57.096Z,13.60
2017-10-21T13:22:23.297Z,13.60
2017-10-21T13:24:49.539Z,13.70
2017-10-21T13:27:15.693Z,13.70
2017-10-21T13:29:41.907Z,13.70
2017-10-21T13:32:08.800Z,13.70
2017-10-21T13:34:35.017Z,13.70
2017-10-21T13:37:01.193Z,13.70
2017-10-21T13:39:27.372Z,13.70
2017-10-21T13:41:53.566Z,13.80
2017-10-21T13:44:19.764Z,13.70
2017-10-21T13:46:46.655Z,13.70
2017-10-21T13:49:12.859Z,13.70
2017-10-21T13:51:39.017Z,13.70
2017-10-21T13:54:05.220Z,13.70
2017-10-21T13:56:31.395Z,13.70
2017-10-21T13:58:58.308Z,13.60
2017-10-21T14:01:24.464Z,13.60
2017-10-21T14:03:51.485Z,13.40
2017-10-21T14:06:17.644Z,13.40
2017-10-21T14:08:43.821Z,13.40
2017-10-21T14:11:10.157Z,13.40
2017-10-21T14:13:36.368Z,13.40
2017-10-21T14:16:02.580Z,13.50
2017-10-21T14:18:28.913Z,13.50
2017-10-21T14:20:55.112Z,13.40
2017-10-21T14:23:21.331Z,13.40
2017-10-21T14:25:47.695Z,13.30
2017-10-21T14:28:13.904Z,13.30
2017-10-21T14:30:40.093Z,13.40
2017-10-21T14:33:06.392Z,13.30
2017-10-21T14:35:32.631Z,13.30
2017-10-21T14:37:58.897Z,13.30
2017-10-21T14:40:26.053Z,13.30
2017-10-21T14:42:52.292Z,13.30
2017-10-21T14:45:18.671Z,13.30
2017-10-21T14:47:44.852Z,13.30
2017-10-21T14:50:11.305Z,13.30
2017-10-21T14:52:37.774Z,13.30
2017-10-21T14:55:04.158Z,13.30
2017-10-21T14:57:30.732Z,13.30
2017-10-21T14:59:57.849Z,13.40
2017-10-21T15:02:24.141Z,13.40
2017-10-21T15:04:51.616Z,13.40
2017-10-21T15:07:18.676Z,13.40
2017-10-21T15:09:45.684Z,13.40
2017-10-21T15:12:11.888Z,13.40
2017-10-21T15:14:39.005Z,13.50
2017-10-21T15:17:05.237Z,13.50
2017-10-21T15:19:31.432Z,13.60
2017-10-21T15:21:58.341Z,13.60
2017-10-21T15:24:24.556Z,13.60
2017-10-21T15:26:50.755Z,13.70
2017-10-21T15:29:16.993Z,13.70
2017-10-21T15:31:43.181Z,13.70
2017-10-21T15:34:09.432Z,13.70
2017-10-21T15:36:35.588Z,13.70
2017-10-21T15:39:02.136Z,13.70
2017-10-21T15:41:28.313Z,13.70
2017-10-21T15:43:54.489Z,13.70
2017-10-21T15:46:22.496Z,13.80
2017-10-21T15:48:48.804Z,13.70
2017-10-21T15:51:15.719Z,13.70
2017-10-21T15:53:41.927Z,13.70
2017-10-21T15:56:08.145Z,13.70
2017-10-21T15:58:36.304Z,13.70
2017-10-21T16:01:09.421Z,13.70
2017-10-21T16:03:35.587Z,13.70
2017-10-21T16:06:01.779Z,13.60
2017-10-21T16:08:28.005Z,13.60
2017-10-21T16:10:54.211Z,13.60
2017-10-21T16:13:21.116Z,13.50
2017-10-21T16:15:47.306Z,13.50
2017-10-21T16:18:14.255Z,13.50
2017-10-21T16:20:41.178Z,13.50
2017-10-21T16:23:07.338Z,13.50
2017-10-21T16:25:34.952Z,13.50
2017-10-21T16:28:01.116Z,13.50
2017-10-21T16:30:27.304Z,13.50
2017-10-21T16:32:53.487Z,13.50
2017-10-21T16:35:19.708Z,13.50
2017-10-21T16:37:46.065Z,13.50
2017-10-21T16:40:12.423Z,13.40
2017-10-21T16:42:38.567Z,13.40
2017-10-21T16:45:04.836Z,13.40
2017-10-21T16:47:30.980Z,13.40
2017-10-21T16:49:57.185Z,13.30
2017-10-21T16:52:23.340Z,13.40
2017-10-21T16:54:49.649Z,13.40
2017-10-21T16:57:16.574Z,13.40
2017-10-21T16:59:42.750Z,13.40
2017-10-21T17:02:09.692Z,13.30
2017-10-21T17:04:35.867Z,13.30
2017-10-21T17:07:02.085Z,13.30
2017-10-21T17:09:28.990Z,13.40
2017-10-21T17:11:55.176Z,13.40
2017-10-21T17:14:21.994Z,13.40
2017-10-21T17:16:48.275Z,13.40
2017-10-21T17:19:14.527Z,13.40
2017-10-21T17:21:41.527Z,13.40
2017-10-21T17:24:09.821Z,13.40
2017-10-21T17:26:36.016Z,13.40
2017-10-21T17:29:03.010Z,13.50
2017-10-21T17:31:29.347Z,13.50
2017-10-21T17:33:55.635Z,13.40
2017-10-21T17:36:21.816Z,13.40
2017-10-21T17:38:49.402Z,13.40
2017-10-21T17:41:15.623Z,13.40
2017-10-21T17:43:41.886Z,13.30
2017-10-21T17:46:08.193Z,13.30
2017-10-21T17:48:34.490Z,13.40
2017-10-21T17:51:00.737Z,13.40
2017-10-21T17:53:27.000Z,13.40
2017-10-21T17:55:53.270Z,13.50
2017-10-21T17:58:19.553Z,13.50
2017-10-21T18:00:45.880Z,13.60
2017-10-21T18:03:12.161Z,13.50
2017-10-21T18:05:38.652Z,13.60
2017-10-21T18:08:04.880Z,13.60
2017-10-21T18:10:31.144Z,13.60
2017-10-21T18:12:58.238Z,13.70
2017-10-21T18:15:24.567Z,13.70
2017-10-21T18:17:51.505Z,13.60
2017-10-21T18:20:17.745Z,13.60
2017-10-21T18:22:43.916Z,13.70
2017-10-21T18:25:10.960Z,13.60
2017-10-21T18:27:39.347Z,13.60
2017-10-21T18:30:05.613Z,13.60
2017-10-21T18:32:32.496Z,13.70
2017-10-21T18:34:58.732Z,13.70
2017-10-21T18:37:24.906Z,13.70
2017-10-21T18:39:51.088Z,13.60
2017-10-21T18:42:17.984Z,13.70
2017-10-21T18:44:45.061Z,13.70
2017-10-21T18:47:11.227Z,13.60
2017-10-21T18:49:37.442Z,13.60
2017-10-21T18:52:03.600Z,13.60
2017-10-21T18:54:29.860Z,13.60
2017-10-21T18:56:56.037Z,13.70
2017-10-21T18:59:22.204Z,13.70
2017-10-21T19:01:48.353Z,13.70
2017-10-21T19:04:14.551Z,13.80
2017-10-21T19:06:41.470Z,13.70
2017-10-21T19:09:07.671Z,13.70
2017-10-21T19:11:33.837Z,13.70
2017-10-21T19:14:00.024Z,13.70
2017-10-21T19:16:26.924Z,13.70
2017-10-21T19:18:53.108Z,13.60
2017-10-21T19:21:19.363Z,13.70
2017-10-21T19:23:46.334Z,13.70
2017-10-21T19:26:12.914Z,13.70
2017-10-21T19:28:39.116Z,13.70
2017-10-21T19:31:07.457Z,13.60
2017-10-21T19:33:33.770Z,13.60
2017-10-21T19:35:59.945Z,13.60
2017-10-21T19:38:26.127Z,13.70
2017-10-21T19:40:52.276Z,13.70
2017-10-21T19:43:19.209Z,13.80
2017-10-21T19:45:45.372Z,13.70
2017-10-21T19:48:13.345Z,13.70
2017-10-21T19:50:39.853Z,13.70
2017-10-21T19:53:06.041Z,13.80
2017-10-21T19:55:32.412Z,13.80
2017-10-21T19:57:58.616Z,13.80
2017-10-21T20:00:24.908Z,13.90
2017-10-21T20:02:51.137Z,13.80
2017-10-21T20:05:18.070Z,13.80
2017-10-21T20:07:44.283Z,13.80
2017-10-21T20:10:10.480Z,13.80
2017-10-21T20:12:37.378Z,13.70
2017-10-21T20:15:03.581Z,13.70
2017-10-21T20:17:30.508Z,13.70
2017-10-21T20:19:56.876Z,13.60
2017-10-21T20:22:23.876Z,13.60
2017-10-21T20:24:50.102Z,13.50
2017-10-21T20:27:16.485Z,13.60
2017-10-21T20:29:42.700Z,13.50
2017-10-21T20:32:09.914Z,13.50
2017-10-21T20:34:36.136Z,13.50
2017-10-21T20:37:02.304Z,13.40
2017-10-21T20:39:29.261Z,13.50
2017-10-21T20:41:56.200Z,13.50
2017-10-21T20:44:22.379Z,13.50
2017-10-21T20:46:49.324Z,13.40
2017-10-21T20:49:15.512Z,13.40
2017-10-21T20:51:41.833Z,13.40
2017-10-21T20:54:08.859Z,13.40
2017-10-21T20:56:35.262Z,13.40
2017-10-21T20:59:01.464Z,13.30
2017-10-21T21:01:28.378Z,13.30
2017-10-21T21:03:54.586Z,13.20
2017-10-21T21:06:20.739Z,13.30
2017-10-21T21:08:53.913Z,13.30
2017-10-21T21:11:20.821Z,13.30
2017-10-21T21:13:47.038Z,13.20
2017-10-21T21:16:13.222Z,13.30
2017-10-21T21:18:39.384Z,13.30
2017-10-21T21:21:05.568Z,13.30
2017-10-21T21:23:31.725Z,13.30
2017-10-21T21:25:57.912Z,13.30
2017-10-21T21:28:24.088Z,13.20
2017-10-21T21:30:50.278Z,13.20
2017-10-21T21:33:16.476Z,13.30
2017-10-21T21:35:42.704Z,13.30
2017-10-21T21:38:08.881Z,13.40
2017-10-21T21:40:36.252Z,13.30
2017-10-21T21:43:02.465Z,13.30
2017-10-21T21:45:28.624Z,13.30
2017-10-21T21:47:54.836Z,13.30
2017-10-21T21:50:21.003Z,13.20
2017-10-21T21:52:47.317Z,13.20
2017-10-21T21:55:14.215Z,13.20
2017-10-21T21:57:40.410Z,13.20
2017-10-21T22:00:07.332Z,13.30
2017-10-21T22:02:33.527Z,13.30
2017-10-21T22:04:59.800Z,13.40
2017-10-21T22:07:25.972Z,13.50
2017-10-21T22:09:52.132Z,13.50
2017-10-21T22:12:18.548Z,13.50
2017-10-21T22:14:44.723Z,13.50
2017-10-21T22:17:11.663Z,13.40
2017-10-21T22:19:37.910Z,13.40
2017-10-21T22:22:04.345Z,13.40
2017-10-21T22:24:30.515Z,13.30
2017-10-21T22:26:56.863Z,13.30
2017-10-21T22:29:23.761Z,13.10
2017-10-21T22:31:49.951Z,13.10
2017-10-21T22:34:16.888Z,12.90
2017-10-21T22:36:43.111Z,12.90
2017-10-21T22:39:09.275Z,12.80
2017-10-21T22:41:35.467Z,12.70
2017-10-21T22:44:01.648Z,12.60
2017-10-21T22:46:27.828Z,12.40
2017-10-21T22:48:54.022Z,12.30
2017-10-21T22:51:20.192Z,12.20
2017-10-21T22:53:46.372Z,12.10
2017-10-21T22:56:19.543Z,12.00
2017-10-21T22:58:45.748Z,12.00
2017-10-21T23:01:11.921Z,12.00
2017-10-21T23:03:38.114Z,11.90
2017-10-21T23:06:04.272Z,11.90
2017-10-21T23:08:30.471Z,11.90
2017-10-21T23:10:57.390Z,11.80
2017-10-21T23:13:23.564Z,11.70
2017-10-21T23:15:50.495Z,11.70
2017-10-21T23:18:16.660Z,11.70
2017-10-21T23:20:43.600Z,11.60
2017-10-21T23:23:09.788Z,11.60
2017-10-21T23:25:35.963Z,11.60
2017-10-21T23:28:02.138Z,11.60
2017-10-21T23:30:29.065Z,11.60
2017-10-21T23:32:55.235Z,11.60
2017-10-21T23:35:22.183Z,11.70
2017-10-21T23:37:48.361Z,11.70
2017-10-21T23:40:15.932Z,11.60
2017-10-21T23:42:42.185Z,11.60
2017-10-21T23:45:08.433Z,11.60
2017-10-21T23:47:34.651Z,11.50
2017-10-21T23:50:01.629Z,11.50
2017-10-21T23:52:27.813Z,11.50
2017-10-21T23:54:54.178Z,11.50
2017-10-21T23:57:20.432Z,11.40
2017-10-21T23:59:47.352Z,11.40
